Van Nuys, CA (91410)

9:19 AM PDT on September 16, 2014 (GMT -0700)
West Valley | Change Station
CLOSE
Current Station
Personal Weather Station
Location: Winnetka, CA
Elevation: 790 ft
Nearby Weather Stations

Elev 790 ft 34.20 °N, 118.57 °W | Updated 4 minutes ago

Clear
Clear
92.3 °F
Feels Like 93 °F
N
0.0
Wind Variable Wind from ESE
Gusts 3.0 mph

Today
High -- | Low -- °F
--% Chance of Precip.
Yesterday
High -- | Low -- °F
Precip. -- in
6:37 AM 6:59 PM
Last Quarter, 44% visible
Pressure 29.77 in
Visibility 10.0 miles
Clouds Clear
Heat Index 93 °F
Dew Point 61 °F
Humidity 36%
Rainfall 0.00 in
Snow Depth 0 in , 0 in , 1 in
UV 2 out of 12
Pollen 6.80 out of 12
Ozone Good
PM2.5 Moderate
Flu Activity Not available.
METAR KVNY 161551Z AUTO 00000KT 10SM CLR 31/13 A2981 RMK AO2 SLP081 T03060128 TSNO

More Conditions Fewer Conditions

Pressure 29.77 in
Visibility 10.0 miles
Clouds Clear
Heat Index 93 °F
Dew Point 61 °F
Humidity 36%
Rainfall 0.00 in
Snow Depth 0 in , 0 in , 1 in
UV 2 out of 12
Pollen 6.80 out of 12
Ozone Good
PM2.5 Moderate
Flu Activity Not available.
METAR KVNY 161551Z AUTO 00000KT 10SM CLR 31/13 A2981 RMK AO2 SLP081 T03060128 TSNO

More Conditions Fewer Conditions

10-Day Weather Forecast

Almanac

Astronomy

Sep. 16, 2014 Rise Set
Actual Time 6:37 AM PDT 6:59 PM PDT
Civil Twilight 6:12 AM PDT 7:24 PM PDT
Nautical Twilight 5:43 AM PDT 7:53 PM PDT
Astronomical Twilight 5:13 AM PDT 8:23 PM PDT
Moon 12:02 AM PDT 2:15 PM PDT
Length of Visible Light 13h 11m
Length of Day
12h 21m
Tomorrow will be 2m 6s shorter.
Last Quarter, 44% of the Moon is Illuminated
Today
Last Quarter
Sep 24
New
Oct 1
First Quarter
Oct 8
Full
Oct 15
Last Quarter

Today's Extremes

State Highs State Lows

Community

WunderPhotos

Upload Photos

1,753,819 photos uploaded!

Nearby

Air Quality

  Air Quality AQ Index Pollutant
Yesterday Moderate
OZONE
Yesterday Moderate
PM2.5
Current Moderate
PM2.5
Current Good
OZONE
Tuesday Good
PM10
Tuesday Moderate
OZONE
Tuesday Good
CO
Tuesday Good
NO2

Snow Depth

Station Depth Elevation
Echo Peak 0 in 7800 ft
Monitor Pass 0 in 8350 ft
Spratt Creek 1 in 6200 ft
Tahoe City Cross 0 in 6750 ft
Sonora Pass 0 in 8800 ft

Earthquake Activity

City Distance Mag. Time & Date
Inyokern, California 121 miles 3.2 5:56 PM PDT
2014-09-14
San Jacinto, California 91 miles 3.0 3:16 PM PDT
2014-09-14
Minimum magnitude displayed is 2.5.

Coastal Water Temperatures

Place Temperature
Santa Monica Pier 71.1 °F
Los Angeles, CA 68.0 °F
La Jolla, CA 68.0 °F

Nearby Weather Stations